Time;durP1;ratioP1;P1;durP2;ratioP2;P2;SDS_P1;SDS_P2;PMS_P1;PMS_P2;Temp;Humidity;BMP_temperature;BMP_pressure;BME280_temperature;BME280_humidity;BME280_pressure;Samples;Min_cycle;Max_cycle;Signal;HPM_P1;HPM_P2
2021/01/01 00:01:32;;;;;;;19.35;12.68;;;2.90;48.80;;;;;;5063645;28;20053;-71
2021/01/01 00:03:59;;;;;;;22.25;11.35;;;3.00;48.00;;;;;;5071401;28;20044;-72
2021/01/01 00:06:26;;;;;;;18.50;13.43;;;3.00;48.10;;;;;;5071516;28;20052;-72
2021/01/01 00:08:53;;;;;;;19.38;12.40;;;3.00;48.00;;;;;;5065693;28;20067;-72
2021/01/01 00:11:20;;;;;;;17.38;12.02;;;3.00;48.10;;;;;;5065228;28;20679;-72
2021/01/01 00:13:47;;;;;;;17.60;12.13;;;3.00;47.60;;;;;;5063451;28;20040;-72
2021/01/01 00:16:15;;;;;;;18.05;12.20;;;3.00;47.90;;;;;;5068618;28;20179;-72
2021/01/01 00:18:43;;;;;;;17.92;11.65;;;3.00;47.90;;;;;;5067304;28;20044;-72
2021/01/01 00:21:10;;;;;;;20.67;12.20;;;3.00;47.80;;;;;;5066088;28;20415;-72
2021/01/01 00:23:37;;;;;;;19.52;12.75;;;3.00;47.90;;;;;;5063835;28;20051;-70
2021/01/01 00:26:10;;;;;;;18.70;12.10;;;3.00;47.20;;;;;;5067219;28;20052;-72
2021/01/01 00:28:40;;;;;;;18.98;11.73;;;3.00;46.50;;;;;;5065743;28;20047;-72
2021/01/01 00:31:08;;;;;;;18.50;12.18;;;3.00;46.90;;;;;;5065988;28;20040;-73
2021/01/01 00:33:35;;;;;;;16.27;10.88;;;3.10;46.60;;;;;;5066850;28;20071;-73
2021/01/01 00:36:04;;;;;;;19.85;11.60;;;3.00;46.70;;;;;;5067163;28;20151;-73
2021/01/01 00:38:31;;;;;;;17.85;11.32;;;3.10;47.20;;;;;;5064291;28;20056;-72
2021/01/01 00:41:04;;;;;;;16.20;10.93;;;3.10;46.60;;;;;;5065190;28;20159;-72
2021/01/01 00:43:33;;;;;;;16.88;11.02;;;3.10;46.90;;;;;;5065164;28;20135;-71
2021/01/01 00:46:00;;;;;;;17.58;11.55;;;3.10;47.70;;;;;;5066506;28;21638;-72
2021/01/01 00:48:28;;;;;;;17.23;10.90;;;3.10;47.10;;;;;;5064166;28;20056;-72
2021/01/01 00:50:55;;;;;;;16.13;10.75;;;3.20;46.90;;;;;;5067736;28;20047;-72
2021/01/01 00:53:39;;;;;;;16.23;10.95;;;3.10;46.30;;;;;;5064073;28;20048;-72
2021/01/01 00:56:06;;;;;;;17.13;11.23;;;3.10;47.40;;;;;;5070298;28;20045;-72
2021/01/01 00:58:33;;;;;;;19.10;12.00;;;3.00;47.90;;;;;;5070570;28;20052;-72
2021/01/01 01:01:00;;;;;;;18.77;11.60;;;3.00;47.70;;;;;;5068894;28;20059;-73
2021/01/01 01:03:28;;;;;;;18.85;11.32;;;3.10;48.00;;;;;;5064537;28;20580;-74
2021/01/01 01:05:55;;;;;;;16.85;11.55;;;3.00;47.90;;;;;;5070526;28;20049;-72
2021/01/01 01:08:22;;;;;;;17.33;11.40;;;3.10;47.90;;;;;;5069282;28;20171;-72
2021/01/01 01:10:48;;;;;;;18.92;11.80;;;3.00;47.30;;;;;;5068916;28;20055;-71
2021/01/01 01:13:15;;;;;;;21.20;12.40;;;3.00;47.40;;;;;;5065312;28;20083;-72
2021/01/01 01:15:42;;;;;;;20.25;12.90;;;3.00;48.80;;;;;;5069460;28;20056;-71
2021/01/01 01:18:09;;;;;;;19.75;12.07;;;3.00;48.30;;;;;;5064946;28;20041;-72
2021/01/01 01:20:37;;;;;;;19.20;12.23;;;3.00;47.90;;;;;;5064232;28;20135;-72
2021/01/01 01:23:03;;;;;;;19.63;11.98;;;3.00;48.30;;;;;;5061314;28;20258;-72
2021/01/01 01:25:31;;;;;;;19.17;12.85;;;3.00;48.00;;;;;;5065370;28;20491;-72
2021/01/01 01:27:57;;;;;;;21.23;12.55;;;3.00;48.70;;;;;;5062371;28;20048;-75
2021/01/01 01:30:25;;;;;;;21.15;13.32;;;3.00;48.70;;;;;;5065992;28;20040;-73
2021/01/01 01:32:51;;;;;;;20.15;12.30;;;3.10;48.90;;;;;;5060475;28;20052;-75
2021/01/01 01:35:18;;;;;;;18.45;11.65;;;3.10;49.30;;;;;;5064298;28;20932;-74
2021/01/01 01:37:46;;;;;;;18.83;11.65;;;3.10;48.70;;;;;;5065483;28;20059;-72
2021/01/01 01:40:13;;;;;;;17.90;11.90;;;3.20;49.10;;;;;;5062709;28;20417;-72
2021/01/01 01:42:40;;;;;;;19.00;12.35;;;3.20;49.10;;;;;;5061000;28;20052;-72
2021/01/01 01:45:08;;;;;;;17.85;12.32;;;3.10;48.70;;;;;;5064353;28;20070;-73
2021/01/01 01:47:37;;;;;;;20.77;12.63;;;3.10;48.70;;;;;;5064932;28;20167;-73
2021/01/01 01:50:05;;;;;;;20.42;12.82;;;3.10;49.10;;;;;;5062639;28;20044;-69
2021/01/01 01:52:33;;;;;;;19.02;12.10;;;3.10;49.40;;;;;;5060808;28;20732;-75
2021/01/01 01:55:02;;;;;;;19.25;12.25;;;3.10;49.70;;;;;;5062090;28;20498;-73
2021/01/01 01:57:29;;;;;;;20.25;12.18;;;3.10;49.50;;;;;;5064565;28;20208;-73
2021/01/01 01:59:58;;;;;;;18.63;11.60;;;3.00;49.80;;;;;;5061697;28;20730;-73
2021/01/01 02:02:25;;;;;;;18.05;11.82;;;3.00;50.30;;;;;;5060686;28;20573;-74
2021/01/01 02:04:52;;;;;;;16.65;10.98;;;3.00;50.40;;;;;;5063443;28;20064;-72
2021/01/01 02:07:19;;;;;;;17.50;11.07;;;3.00;50.50;;;;;;5065058;28;20560;-72
2021/01/01 02:09:46;;;;;;;15.85;11.02;;;3.00;51.20;;;;;;5062022;28;20056;-72
2021/01/01 02:12:16;;;;;;;18.08;11.25;;;3.00;50.30;;;;;;5060250;28;20044;-72
2021/01/01 02:14:43;;;;;;;15.18;10.07;;;3.10;50.70;;;;;;5064305;28;20044;-72
2021/01/01 02:17:10;;;;;;;17.83;11.55;;;3.00;50.10;;;;;;5065456;28;20425;-71
2021/01/01 02:19:37;;;;;;;17.35;11.13;;;3.10;50.30;;;;;;5062339;28;20052;-71
2021/01/01 02:22:08;;;;;;;16.08;10.40;;;3.10;51.50;;;;;;5063005;28;20055;-74
2021/01/01 02:24:35;;;;;;;16.35;10.80;;;3.10;50.80;;;;;;5065440;28;20048;-70
2021/01/01 02:27:02;;;;;;;17.65;10.38;;;3.10;49.20;;;;;;5063196;28;20056;-71
2021/01/01 02:29:30;;;;;;;17.85;11.00;;;3.10;49.10;;;;;;5063219;28;20052;-73
2021/01/01 02:32:00;;;;;;;16.30;10.43;;;3.10;50.00;;;;;;5062687;28;20044;-72
2021/01/01 02:34:27;;;;;;;18.08;11.48;;;3.10;49.50;;;;;;5067221;28;20525;-72
2021/01/01 02:36:54;;;;;;;21.55;10.35;;;3.10;49.50;;;;;;5065806;28;20574;-72
2021/01/01 02:39:22;;;;;;;14.95;9.95;;;3.10;49.70;;;;;;5065636;28;20048;-74
2021/01/01 02:41:48;;;;;;;17.73;11.20;;;3.10;49.50;;;;;;5062608;28;20110;-72
2021/01/01 02:44:18;;;;;;;16.38;10.18;;;3.10;50.40;;;;;;5062888;28;20052;-72
2021/01/01 02:46:45;;;;;;;17.00;10.02;;;3.10;49.90;;;;;;5068700;28;20048;-73
2021/01/01 02:49:12;;;;;;;14.07;9.40;;;3.10;50.40;;;;;;5065480;28;20044;-71
2021/01/01 02:51:39;;;;;;;14.65;9.25;;;3.10;49.30;;;;;;5064235;28;20050;-74
2021/01/01 02:54:06;;;;;;;15.18;9.13;;;3.10;50.60;;;;;;5065994;28;20506;-73
2021/01/01 02:56:34;;;;;;;14.52;9.63;;;3.20;50.40;;;;;;5069934;28;20419;-72
2021/01/01 02:59:01;;;;;;;16.40;10.30;;;3.20;50.00;;;;;;5065153;28;20052;-72
2021/01/01 03:01:28;;;;;;;18.13;10.82;;;3.20;50.70;;;;;;5064917;28;20052;-74
2021/01/01 03:03:54;;;;;;;16.92;10.20;;;3.20;50.20;;;;;;5066064;28;20055;-72
2021/01/01 03:06:21;;;;;;;16.98;10.00;;;3.20;50.20;;;;;;5068328;28;20052;-73
2021/01/01 03:08:48;;;;;;;17.40;10.18;;;3.20;49.30;;;;;;5069132;28;20059;-73
2021/01/01 03:11:15;;;;;;;18.48;10.20;;;3.20;49.50;;;;;;5068973;28;20495;-71
2021/01/01 03:13:43;;;;;;;15.95;10.40;;;3.20;49.60;;;;;;5065665;28;20053;-70
2021/01/01 03:16:09;;;;;;;15.68;9.43;;;3.20;49.70;;;;;;5069644;28;20044;-72
2021/01/01 03:18:36;;;;;;;15.52;9.27;;;3.30;49.40;;;;;;5065642;28;20424;-72
2021/01/01 03:21:04;;;;;;;15.70;9.55;;;3.30;50.00;;;;;;5067683;28;20046;-72
2021/01/01 03:23:31;;;;;;;16.95;10.07;;;3.30;50.00;;;;;;5061200;28;20058;-71
2021/01/01 03:25:58;;;;;;;15.63;9.48;;;3.30;50.40;;;;;;5063678;28;20051;-71
2021/01/01 03:28:25;;;;;;;17.85;9.93;;;3.30;50.70;;;;;;5065008;28;20056;-72
2021/01/01 03:30:53;;;;;;;16.55;10.00;;;3.30;51.40;;;;;;5065956;28;20044;-70
2021/01/01 03:33:20;;;;;;;18.20;10.05;;;3.30;51.70;;;;;;5065183;28;20044;-71
2021/01/01 03:35:47;;;;;;;15.30;9.30;;;3.30;52.00;;;;;;5071423;28;20498;-71
2021/01/01 03:38:14;;;;;;;16.63;9.65;;;3.30;52.90;;;;;;5068394;28;20056;-71
2021/01/01 03:40:41;;;;;;;17.70;11.00;;;3.20;52.80;;;;;;5071591;28;20060;-71
2021/01/01 03:43:07;;;;;;;18.00;10.15;;;3.20;52.40;;;;;;5064686;28;20063;-71
2021/01/01 03:45:35;;;;;;;17.83;11.23;;;3.20;52.20;;;;;;5071346;28;20139;-70
2021/01/01 03:48:03;;;;;;;15.45;9.45;;;3.20;52.00;;;;;;5069963;28;20048;-70
2021/01/01 03:50:29;;;;;;;18.08;10.63;;;3.10;53.20;;;;;;5070954;28;20064;-71
2021/01/01 03:52:56;;;;;;;18.52;10.73;;;3.20;54.40;;;;;;5066542;28;20040;-71
2021/01/01 03:55:23;;;;;;;17.38;10.48;;;3.10;55.20;;;;;;5069911;28;20040;-71
2021/01/01 03:57:50;;;;;;;20.10;12.10;;;3.10;55.20;;;;;;5070784;28;20506;-71
2021/01/01 04:00:17;;;;;;;22.20;12.27;;;3.10;56.90;;;;;;5069460;28;20052;-71
2021/01/01 04:02:44;;;;;;;19.55;11.98;;;3.00;56.20;;;;;;5066650;28;20044;-72
2021/01/01 04:05:12;;;;;;;21.30;12.05;;;3.00;56.50;;;;;;5069881;28;20048;-70
2021/01/01 04:07:39;;;;;;;21.15;12.10;;;3.10;56.80;;;;;;5070748;28;20057;-71
2021/01/01 04:10:07;;;;;;;19.65;11.85;;;3.00;56.10;;;;;;5069620;28;20056;-71
2021/01/01 04:12:34;;;;;;;20.98;12.23;;;3.10;56.10;;;;;;5067430;28;20048;-71
2021/01/01 04:15:01;;;;;;;20.33;12.25;;;3.00;55.30;;;;;;5070196;28;20043;-71
2021/01/01 04:17:27;;;;;;;19.33;11.07;;;3.00;54.20;;;;;;5070882;28;20068;-71
2021/01/01 04:19:54;;;;;;;19.25;11.20;;;3.00;53.30;;;;;;5067916;28;20498;-71
2021/01/01 04:22:22;;;;;;;18.88;11.63;;;3.00;53.80;;;;;;5065982;28;20593;-71
2021/01/01 04:24:48;;;;;;;17.80;10.38;;;3.00;53.80;;;;;;5070127;28;20044;-71
2021/01/01 04:27:15;;;;;;;18.33;10.45;;;3.00;54.70;;;;;;5070819;28;20048;-71
2021/01/01 04:29:42;;;;;;;18.88;11.07;;;3.00;54.60;;;;;;5069699;28;20060;-70
2021/01/01 04:32:09;;;;;;;19.67;11.40;;;3.00;54.20;;;;;;5066433;28;20044;-71
2021/01/01 04:34:35;;;;;;;17.75;11.38;;;3.00;54.30;;;;;;5069495;28;20045;-70
2021/01/01 04:37:02;;;;;;;19.35;10.85;;;3.00;54.20;;;;;;5069329;28;20055;-71
2021/01/01 04:39:30;;;;;;;16.70;10.38;;;3.00;54.40;;;;;;5068825;28;20044;-71
2021/01/01 04:41:57;;;;;;;17.30;10.73;;;3.10;55.20;;;;;;5068990;28;20048;-70
2021/01/01 04:44:24;;;;;;;17.80;11.23;;;3.00;52.90;;;;;;5066698;28;20040;-71
2021/01/01 04:46:52;;;;;;;16.73;10.40;;;3.00;53.70;;;;;;5068718;28;20411;-71
2021/01/01 04:49:19;;;;;;;15.88;9.50;;;3.10;54.70;;;;;;5068738;28;20566;-70
2021/01/01 04:51:46;;;;;;;14.95;9.02;;;3.10;52.70;;;;;;5070280;28;20044;-70
2021/01/01 04:54:16;;;;;;;16.42;9.20;;;3.00;52.00;;;;;;5062881;28;20049;-71
2021/01/01 04:56:48;;;;;;;17.80;9.30;;;3.00;52.60;;;;;;5068966;28;20391;-71
2021/01/01 04:59:16;;;;;;;15.10;8.85;;;3.10;52.70;;;;;;5067196;28;20048;-70
2021/01/01 05:01:43;;;;;;;12.80;8.13;;;3.00;52.60;;;;;;5068911;28;20040;-70
2021/01/01 05:04:11;;;;;;;13.35;8.52;;;3.00;52.60;;;;;;5065033;28;20052;-70
2021/01/01 05:06:39;;;;;;;15.77;9.18;;;3.00;52.30;;;;;;5070660;28;20064;-71
2021/01/01 05:09:07;;;;;;;13.20;8.63;;;3.00;52.70;;;;;;5068489;28;20044;-71
2021/01/01 05:11:34;;;;;;;14.43;8.85;;;3.00;53.70;;;;;;5069490;28;20053;-70
2021/01/01 05:14:03;;;;;;;15.85;9.43;;;3.00;54.00;;;;;;5065706;28;20052;-70
2021/01/01 05:16:34;;;;;;;14.38;9.30;;;3.00;53.70;;;;;;5070027;28;20056;-70
2021/01/01 05:19:09;;;;;;;14.93;9.55;;;3.00;53.80;;;;;;5067437;28;20048;-71
2021/01/01 05:21:36;;;;;;;14.95;9.20;;;3.00;53.90;;;;;;5070581;28;20048;-70
2021/01/01 05:24:05;;;;;;;15.68;9.48;;;3.10;54.60;;;;;;5064176;28;20056;-71
2021/01/01 05:26:34;;;;;;;14.88;9.90;;;3.00;54.70;;;;;;5070343;28;20060;-71
2021/01/01 05:29:05;;;;;;;16.30;9.15;;;3.00;54.50;;;;;;5067749;28;20051;-71
2021/01/01 05:31:38;;;;;;;16.25;8.98;;;3.00;53.20;;;;;;5068062;28;20082;-71
2021/01/01 05:34:07;;;;;;;13.60;8.55;;;2.90;54.20;;;;;;5064679;28;20051;-71
2021/01/01 05:36:36;;;;;;;14.48;8.88;;;2.90;55.50;;;;;;5069345;28;20144;-70
2021/01/01 05:39:07;;;;;;;14.13;8.70;;;2.90;56.10;;;;;;5065217;28;20047;-69
2021/01/01 05:41:39;;;;;;;15.00;8.55;;;2.90;56.40;;;;;;5067982;28;20052;-70
2021/01/01 05:44:08;;;;;;;14.30;7.80;;;2.80;55.80;;;;;;5063246;28;20053;-70
2021/01/01 05:46:35;;;;;;;13.50;8.77;;;2.70;56.60;;;;;;5069698;28;20617;-69
2021/01/01 05:49:03;;;;;;;12.77;7.72;;;2.70;57.30;;;;;;5067039;28;20040;-71
2021/01/01 05:51:30;;;;;;;14.13;8.13;;;2.70;54.30;;;;;;5068646;28;20040;-70
2021/01/01 05:54:11;;;;;;;15.55;8.43;;;2.70;55.10;;;;;;5063518;28;20044;-70
2021/01/01 05:56:41;;;;;;;12.95;8.32;;;2.70;56.20;;;;;;5068946;28;20129;-71
2021/01/01 05:59:10;;;;;;;14.27;8.05;;;2.70;56.30;;;;;;5067479;28;20041;-70
2021/01/01 06:01:40;;;;;;;12.23;7.63;;;2.70;55.20;;;;;;5067527;28;20052;-71
2021/01/01 06:04:07;;;;;;;12.55;8.00;;;2.70;55.50;;;;;;5064792;28;20044;-70
2021/01/01 06:06:35;;;;;;;13.18;7.85;;;2.60;55.40;;;;;;5068767;28;20518;-70
2021/01/01 06:09:05;;;;;;;11.00;7.45;;;2.70;55.30;;;;;;5067193;28;20133;-70
2021/01/01 06:11:37;;;;;;;9.35;5.75;;;2.60;52.30;;;;;;5069180;28;20071;-71
2021/01/01 06:14:05;;;;;;;9.82;5.60;;;2.50;51.80;;;;;;5069545;28;20047;-72
2021/01/01 06:16:45;;;;;;;8.07;5.07;;;2.50;48.70;;;;;;5071463;28;20048;-70
2021/01/01 06:19:13;;;;;;;6.78;4.28;;;2.40;48.30;;;;;;5070240;28;20048;-70
2021/01/01 06:21:44;;;;;;;8.95;5.13;;;2.40;49.10;;;;;;5070414;28;20540;-72
2021/01/01 06:24:19;;;;;;;6.00;3.85;;;2.40;47.10;;;;;;5070208;28;20044;-70
2021/01/01 06:26:46;;;;;;;7.38;4.90;;;2.40;46.00;;;;;;5070082;28;20150;-70
2021/01/01 06:29:17;;;;;;;9.63;5.00;;;2.30;46.70;;;;;;5070845;28;20643;-70
2021/01/01 06:31:46;;;;;;;7.13;4.30;;;2.30;46.10;;;;;;5069450;28;20379;-70
2021/01/01 06:34:23;;;;;;;5.80;4.00;;;2.30;47.30;;;;;;5068469;28;20414;-72
2021/01/01 06:36:50;;;;;;;8.82;4.45;;;2.30;46.70;;;;;;5067587;28;20051;-71
2021/01/01 06:39:37;;;;;;;7.85;4.75;;;2.30;46.90;;;;;;5070983;28;20052;-71
2021/01/01 06:42:04;;;;;;;6.10;4.43;;;2.30;48.10;;;;;;5068150;28;20051;-71
2021/01/01 06:44:37;;;;;;;7.78;4.53;;;2.20;46.60;;;;;;5070596;28;20063;-72
2021/01/01 06:47:07;;;;;;;7.95;4.47;;;2.30;47.30;;;;;;5068317;28;20388;-71
2021/01/01 06:49:36;;;;;;;6.38;4.75;;;2.30;47.80;;;;;;5070564;28;20131;-71
2021/01/01 06:52:10;;;;;;;6.45;4.40;;;2.30;47.60;;;;;;5070103;28;20052;-70
2021/01/01 06:54:54;;;;;;;7.75;5.00;;;2.30;47.70;;;;;;5070220;28;20036;-70
2021/01/01 06:57:23;;;;;;;8.77;5.15;;;2.40;48.20;;;;;;5069429;28;20052;-70
2021/01/01 06:59:50;;;;;;;6.18;4.40;;;2.30;47.20;;;;;;5069988;28;20059;-70
2021/01/01 07:02:20;;;;;;;7.72;4.78;;;2.40;48.10;;;;;;5067601;28;20044;-70
2021/01/01 07:04:48;;;;;;;6.60;4.32;;;2.40;46.50;;;;;;5068946;28;20128;-70
2021/01/01 07:07:40;;;;;;;8.15;4.78;;;2.30;45.60;;;;;;5067679;28;20487;-70
2021/01/01 07:10:08;;;;;;;6.65;4.45;;;2.30;45.50;;;;;;5068741;28;20483;-70
2021/01/01 07:12:38;;;;;;;6.03;4.55;;;2.30;45.00;;;;;;5067745;28;20048;-70
2021/01/01 07:15:32;;;;;;;6.85;4.60;;;2.30;44.00;;;;;;5069602;28;20060;-70
2021/01/01 07:18:00;;;;;;;6.63;4.60;;;2.30;44.10;;;;;;5069539;28;20056;-72
2021/01/01 07:20:27;;;;;;;6.38;4.30;;;2.40;44.10;;;;;;5068509;28;20083;-72
2021/01/01 07:23:00;;;;;;;6.82;4.50;;;2.40;43.20;;;;;;5064955;28;20676;-72
2021/01/01 07:25:37;;;;;;;6.53;4.65;;;2.30;41.50;;;;;;5068173;28;20103;-71
2021/01/01 07:28:06;;;;;;;5.55;4.07;;;2.30;41.70;;;;;;5068708;28;20499;-72
2021/01/01 07:30:35;;;;;;;6.05;4.22;;;2.30;40.40;;;;;;5068668;28;20131;-71
2021/01/01 07:33:03;;;;;;;5.57;3.65;;;2.30;41.20;;;;;;5067095;28;20049;-71
2021/01/01 07:35:31;;;;;;;6.88;4.47;;;2.30;41.00;;;;;;5069280;28;20044;-70
2021/01/01 07:37:59;;;;;;;5.50;3.67;;;2.30;39.90;;;;;;5066420;28;20418;-70
2021/01/01 07:40:26;;;;;;;6.15;3.90;;;2.30;39.80;;;;;;5069118;28;20490;-70
2021/01/01 07:42:54;;;;;;;5.53;3.90;;;2.30;39.90;;;;;;5069841;28;20135;-72
2021/01/01 07:45:21;;;;;;;5.60;3.42;;;2.30;40.30;;;;;;5069369;28;20044;-71
2021/01/01 07:47:49;;;;;;;6.63;3.88;;;2.30;38.80;;;;;;5069716;28;20048;-71
2021/01/01 07:50:18;;;;;;;6.07;4.63;;;2.40;41.20;;;;;;5065072;28;20045;-72
2021/01/01 07:52:46;;;;;;;6.55;4.38;;;2.50;41.20;;;;;;5066775;28;20391;-73
2021/01/01 07:55:21;;;;;;;5.53;4.05;;;2.40;38.90;;;;;;5070617;28;20045;-72
2021/01/01 07:57:48;;;;;;;7.05;4.68;;;2.40;39.60;;;;;;5071191;28;20713;-72
2021/01/01 08:00:15;;;;;;;6.75;4.53;;;2.50;40.90;;;;;;5070477;28;20483;-72
2021/01/01 08:02:43;;;;;;;6.80;4.72;;;2.40;38.20;;;;;;5067960;28;20052;-71
2021/01/01 08:05:14;;;;;;;6.05;4.25;;;2.40;38.40;;;;;;5070345;28;20525;-71
2021/01/01 08:07:42;;;;;;;7.40;4.40;;;2.50;39.10;;;;;;5062632;28;20050;-71
2021/01/01 08:10:09;;;;;;;7.43;4.63;;;2.40;39.10;;;;;;5070753;28;20044;-71
2021/01/01 08:12:37;;;;;;;8.30;5.10;;;2.50;40.20;;;;;;5068603;28;20150;-71
2021/01/01 08:15:05;;;;;;;9.07;5.65;;;2.60;40.40;;;;;;5068875;28;20600;-72
2021/01/01 08:17:32;;;;;;;7.53;5.00;;;2.60;39.70;;;;;;5070477;28;20059;-73
2021/01/01 08:19:59;;;;;;;7.90;5.55;;;2.70;38.80;;;;;;5071430;28;20052;-71
2021/01/01 08:22:30;;;;;;;7.63;5.18;;;2.60;37.80;;;;;;5069684;28;20052;-71
2021/01/01 08:24:59;;;;;;;7.55;4.75;;;2.60;38.20;;;;;;5073044;28;20047;-71
2021/01/01 08:27:27;;;;;;;9.05;5.05;;;2.70;37.80;;;;;;5072069;28;20086;-71
2021/01/01 08:30:00;;;;;;;6.25;4.15;;;2.60;37.90;;;;;;5070450;28;20513;-72
2021/01/01 08:32:28;;;;;;;8.63;4.97;;;2.60;36.70;;;;;;5071183;28;20052;-72
2021/01/01 08:34:55;;;;;;;6.35;4.40;;;2.70;37.90;;;;;;5072394;28;20041;-72
2021/01/01 08:37:24;;;;;;;5.20;4.03;;;2.70;37.30;;;;;;5069658;28;20067;-72
2021/01/01 08:40:03;;;;;;;6.03;4.20;;;2.80;37.10;;;;;;5071335;28;20052;-71
2021/01/01 08:42:34;;;;;;;6.38;4.78;;;2.80;37.20;;;;;;5070685;28;20056;-70
2021/01/01 08:45:02;;;;;;;6.78;4.53;;;2.90;37.90;;;;;;5070885;28;20044;-71
2021/01/01 08:47:39;;;;;;;7.25;4.45;;;3.00;36.40;;;;;;5071445;28;20052;-72
2021/01/01 08:50:21;;;;;;;7.05;4.88;;;3.00;36.00;;;;;;5070646;28;20051;-72
2021/01/01 08:52:50;;;;;;;7.57;4.93;;;3.00;36.40;;;;;;5070160;28;20058;-70
2021/01/01 08:55:17;;;;;;;8.40;5.20;;;2.90;34.50;;;;;;5071309;28;20048;-71
2021/01/01 08:57:44;;;;;;;8.35;5.47;;;2.90;34.20;;;;;;5071590;28;20060;-71
2021/01/01 09:00:12;;;;;;;6.82;4.72;;;2.90;34.70;;;;;;5072383;28;20054;-71
2021/01/01 09:02:41;;;;;;;8.48;5.60;;;2.90;34.70;;;;;;5071168;28;20442;-71
2021/01/01 09:05:12;;;;;;;7.22;4.50;;;3.00;36.40;;;;;;5070401;28;20036;-71
2021/01/01 09:07:38;;;;;;;7.15;4.70;;;3.00;33.90;;;;;;5070078;28;20502;-72
2021/01/01 09:10:20;;;;;;;8.90;5.53;;;3.00;34.40;;;;;;5072232;28;20533;-72
2021/01/01 09:12:47;;;;;;;9.18;5.60;;;3.00;34.70;;;;;;5070922;28;20053;-71
2021/01/01 09:15:27;;;;;;;8.40;5.40;;;3.00;34.20;;;;;;5070340;28;20666;-71
2021/01/01 09:18:04;;;;;;;8.18;5.18;;;3.00;33.50;;;;;;5071802;28;20048;-71
2021/01/01 09:20:31;;;;;;;9.35;6.25;;;3.00;33.70;;;;;;5071700;28;20072;-72
2021/01/01 09:23:01;;;;;;;10.98;6.50;;;3.20;34.10;;;;;;5070922;28;20060;-70
2021/01/01 09:25:30;;;;;;;9.65;6.43;;;3.20;32.10;;;;;;5071625;28;20056;-72
2021/01/01 09:27:58;;;;;;;9.73;6.07;;;3.20;33.60;;;;;;5072165;28;20045;-71
2021/01/01 09:30:26;;;;;;;8.15;5.80;;;3.20;31.90;;;;;;5070878;28;20045;-72
2021/01/01 09:32:54;;;;;;;8.98;5.80;;;3.20;33.10;;;;;;5069717;28;20048;-72
2021/01/01 09:35:22;;;;;;;9.35;5.90;;;3.10;32.70;;;;;;5071491;28;20055;-72
2021/01/01 09:37:51;;;;;;;9.27;5.88;;;3.40;32.00;;;;;;5072216;28;20048;-72
2021/01/01 09:40:19;;;;;;;8.75;5.90;;;3.50;31.30;;;;;;5070589;28;20047;-71
2021/01/01 09:42:47;;;;;;;9.65;6.60;;;3.40;31.20;;;;;;5069905;28;20127;-71
2021/01/01 09:45:16;;;;;;;9.07;6.00;;;3.40;31.30;;;;;;5070596;28;20040;-73
2021/01/01 09:47:43;;;;;;;9.10;5.85;;;3.60;31.30;;;;;;5071339;28;20626;-72
2021/01/01 09:50:11;;;;;;;8.88;5.93;;;3.60;30.60;;;;;;5071887;28;20164;-72
2021/01/01 09:52:38;;;;;;;8.43;5.45;;;3.70;31.60;;;;;;5071097;28;20059;-73
2021/01/01 09:55:07;;;;;;;10.00;6.53;;;3.50;29.20;;;;;;5069922;28;20041;-72
2021/01/01 09:57:34;;;;;;;8.93;5.68;;;3.30;31.20;;;;;;5071926;28;20059;-72
2021/01/01 10:00:02;;;;;;;9.02;5.55;;;3.40;32.20;;;;;;5071577;28;20044;-72
2021/01/01 10:02:32;;;;;;;9.18;5.88;;;3.60;31.60;;;;;;5068922;28;20041;-72
2021/01/01 10:04:59;;;;;;;9.07;5.68;;;3.70;31.60;;;;;;5071319;28;20426;-72
2021/01/01 10:07:27;;;;;;;10.73;6.38;;;3.70;28.90;;;;;;5070295;28;20585;-73
2021/01/01 10:09:56;;;;;;;9.52;6.03;;;3.40;29.30;;;;;;5070043;28;20057;-73
2021/01/01 10:12:24;;;;;;;9.43;6.03;;;3.50;28.80;;;;;;5067468;28;20051;-72
2021/01/01 10:14:54;;;;;;;10.57;6.50;;;3.50;29.30;;;;;;5070251;28;20053;-72
2021/01/01 10:17:22;;;;;;;9.95;6.25;;;3.70;29.00;;;;;;5070728;28;20044;-72
2021/01/01 10:19:49;;;;;;;11.70;7.32;;;3.40;28.70;;;;;;5069889;28;20562;-73
2021/01/01 10:22:17;;;;;;;9.25;5.95;;;3.60;29.90;;;;;;5069659;28;20055;-72
2021/01/01 10:24:44;;;;;;;10.02;6.78;;;3.40;29.70;;;;;;5070955;28;20048;-72
2021/01/01 10:27:11;;;;;;;10.35;6.53;;;3.30;29.90;;;;;;5069506;28;20044;-72
2021/01/01 10:29:38;;;;;;;10.73;6.85;;;3.50;30.80;;;;;;5069188;28;20047;-72
2021/01/01 10:32:07;;;;;;;10.90;6.57;;;3.50;30.90;;;;;;5068337;28;20509;-72
2021/01/01 10:34:35;;;;;;;11.05;6.55;;;3.70;29.80;;;;;;5069551;28;20414;-72
2021/01/01 10:37:02;;;;;;;8.93;5.47;;;3.70;28.90;;;;;;5070479;28;20536;-71
2021/01/01 10:39:29;;;;;;;10.85;6.28;;;3.40;28.70;;;;;;5070764;28;20498;-72
2021/01/01 10:41:56;;;;;;;9.38;5.75;;;3.60;29.70;;;;;;5069623;28;20041;-72
2021/01/01 10:44:24;;;;;;;10.90;6.72;;;3.70;29.00;;;;;;5070329;28;20056;-70
2021/01/01 10:46:52;;;;;;;10.70;6.28;;;3.60;28.90;;;;;;5070640;28;20494;-70
2021/01/01 10:49:20;;;;;;;12.43;6.95;;;3.60;28.30;;;;;;5069620;28;20049;-70
2021/01/01 10:51:48;;;;;;;8.45;5.82;;;3.80;28.90;;;;;;5069580;28;20052;-70
2021/01/01 10:54:15;;;;;;;9.63;6.35;;;3.50;27.10;;;;;;5067924;28;20128;-71
2021/01/01 10:56:45;;;;;;;10.68;6.95;;;3.50;28.30;;;;;;5070458;28;20045;-70
2021/01/01 10:59:32;;;;;;;10.70;6.57;;;3.50;27.80;;;;;;5070146;28;20053;-72
2021/01/01 11:02:00;;;;;;;10.32;6.43;;;3.70;28.10;;;;;;5069398;28;20040;-72
2021/01/01 11:04:27;;;;;;;15.02;8.98;;;3.60;28.90;;;;;;5068621;28;20075;-70
2021/01/01 11:06:55;;;;;;;16.00;9.20;;;3.70;28.50;;;;;;5070407;28;20514;-71
2021/01/01 11:09:21;;;;;;;13.18;6.55;;;3.90;27.60;;;;;;5069425;28;20059;-72
2021/01/01 11:11:48;;;;;;;11.60;7.35;;;3.80;25.80;;;;;;5067021;28;20048;-72
2021/01/01 11:14:20;;;;;;;9.68;5.80;;;3.60;27.90;;;;;;5069770;28;20471;-71
2021/01/01 12:23:10;;;;;;;6.68;4.72;;;3.80;22.70;;;;;;5054900;28;20044;-72
2021/01/01 12:25:38;;;;;;;7.82;4.28;;;3.80;21.30;;;;;;5071341;28;20055;-72
2021/01/01 12:28:08;;;;;;;7.35;4.50;;;4.10;21.10;;;;;;5073205;28;20044;-73
2021/01/01 12:30:37;;;;;;;9.98;6.13;;;4.10;20.30;;;;;;5071859;28;20441;-74
2021/01/01 12:33:04;;;;;;;11.02;6.07;;;4.00;21.20;;;;;;5071624;28;20052;-72
2021/01/01 12:35:31;;;;;;;15.23;8.02;;;4.20;22.50;;;;;;5067053;28;20048;-72
2021/01/01 12:38:00;;;;;;;10.98;6.53;;;4.00;24.40;;;;;;5067802;28;20462;-74
2021/01/01 12:40:28;;;;;;;11.55;6.93;;;4.10;22.50;;;;;;5070069;28;20136;-72
2021/01/01 12:42:55;;;;;;;11.07;6.57;;;4.20;23.50;;;;;;5071863;28;20051;-71
2021/01/01 12:45:23;;;;;;;11.75;7.15;;;4.30;22.60;;;;;;5072826;28;20054;-73
2021/01/01 12:47:52;;;;;;;17.67;9.63;;;4.20;22.60;;;;;;5073729;28;20055;-72
2021/01/01 12:50:19;;;;;;;10.98;6.68;;;4.10;23.00;;;;;;5076527;28;20045;-72
2021/01/01 12:52:53;;;;;;;11.23;6.53;;;4.00;23.20;;;;;;5070509;28;20049;-71
2021/01/01 12:55:20;;;;;;;12.30;6.82;;;3.80;23.40;;;;;;5073022;28;20506;-72
2021/01/01 12:57:47;;;;;;;13.60;8.05;;;3.90;23.90;;;;;;5071533;28;20078;-72
2021/01/01 13:00:15;;;;;;;11.25;6.75;;;4.00;24.20;;;;;;5069510;28;20053;-72
2021/01/01 13:02:42;;;;;;;11.20;6.63;;;4.10;23.80;;;;;;5070304;28;20067;-72
2021/01/01 13:05:10;;;;;;;8.88;6.03;;;4.00;22.40;;;;;;5071016;28;20048;-73
2021/01/01 13:07:38;;;;;;;9.60;6.20;;;4.10;20.50;;;;;;5064422;28;20049;-71
2021/01/01 13:10:06;;;;;;;8.73;5.38;;;4.00;21.10;;;;;;5065823;28;20058;-72
2021/01/01 13:12:33;;;;;;;10.35;5.97;;;4.10;21.60;;;;;;5068893;28;20498;-72
2021/01/01 13:15:01;;;;;;;9.95;5.97;;;4.10;20.90;;;;;;5066865;28;20548;-71
2021/01/01 13:17:28;;;;;;;10.73;6.95;;;4.30;21.20;;;;;;5066124;28;20062;-71
2021/01/01 13:19:56;;;;;;;11.27;6.75;;;4.20;20.50;;;;;;5067525;28;20044;-72
2021/01/01 13:22:24;;;;;;;9.80;5.60;;;4.20;20.30;;;;;;5068417;28;20048;-72
2021/01/01 13:24:51;;;;;;;8.88;5.07;;;4.00;19.50;;;;;;5068357;28;20062;-71
2021/01/01 13:27:18;;;;;;;7.60;4.55;;;4.00;19.70;;;;;;5068393;28;20056;-70
2021/01/01 13:29:45;;;;;;;9.88;4.75;;;4.00;18.50;;;;;;5067766;28;20048;-71
2021/01/01 13:32:11;;;;;;;7.47;5.30;;;3.90;18.50;;;;;;5069210;28;20474;-70
2021/01/01 13:34:38;;;;;;;6.25;3.75;;;3.80;19.20;;;;;;5067231;28;20063;-72
2021/01/01 13:37:06;;;;;;;6.75;4.30;;;3.80;17.10;;;;;;5069436;28;20037;-72
2021/01/01 13:39:33;;;;;;;7.07;4.45;;;3.80;18.50;;;;;;5064342;28;20049;-71
2021/01/01 13:42:00;;;;;;;7.25;4.32;;;3.90;18.50;;;;;;5069323;28;20072;-71
2021/01/01 13:44:27;;;;;;;10.05;5.30;;;3.80;19.30;;;;;;5068301;28;20586;-71
2021/01/01 13:46:54;;;;;;;10.77;5.68;;;3.90;19.50;;;;;;5069717;28;20055;-72
2021/01/01 13:49:21;;;;;;;9.50;5.40;;;3.90;20.00;;;;;;5064371;28;20056;-73
2021/01/01 13:51:48;;;;;;;12.20;5.68;;;3.90;19.40;;;;;;5067579;28;20051;-73
2021/01/01 13:54:15;;;;;;;9.32;5.63;;;3.90;20.10;;;;;;5066744;28;20071;-73
2021/01/01 13:56:42;;;;;;;7.93;5.10;;;4.00;21.20;;;;;;5068762;28;20052;-71
2021/01/01 13:59:09;;;;;;;10.63;5.72;;;4.00;19.90;;;;;;5062826;28;20414;-72
2021/01/01 14:01:36;;;;;;;9.23;5.32;;;3.80;19.70;;;;;;5069808;28;20045;-71